sensor_id;sensor_type;location;lat;lon;timestamp;P1;durP1;ratioP1;P2;durP2;ratioP2
76320;SDS011;65132;52.088;5.402;2023-04-15T00:01:09;7.80;;;3.45;;
76320;SDS011;65132;52.088;5.402;2023-04-15T00:03:35;7.38;;;3.60;;
76320;SDS011;65132;52.088;5.402;2023-04-15T00:06:02;7.43;;;4.60;;
76320;SDS011;65132;52.088;5.402;2023-04-15T00:08:30;8.30;;;3.42;;
76320;SDS011;65132;52.088;5.402;2023-04-15T00:10:56;7.40;;;3.47;;
76320;SDS011;65132;52.088;5.402;2023-04-15T00:13:22;8.20;;;3.63;;
76320;SDS011;65132;52.088;5.402;2023-04-15T00:15:52;7.93;;;4.40;;
76320;SDS011;65132;52.088;5.402;2023-04-15T00:18:18;7.07;;;3.38;;
76320;SDS011;65132;52.088;5.402;2023-04-15T00:20:47;8.38;;;3.35;;
76320;SDS011;65132;52.088;5.402;2023-04-15T00:23:16;6.35;;;3.45;;
76320;SDS011;65132;52.088;5.402;2023-04-15T00:25:43;8.23;;;3.40;;
76320;SDS011;65132;52.088;5.402;2023-04-15T00:28:12;8.45;;;3.22;;
76320;SDS011;65132;52.088;5.402;2023-04-15T00:30:39;4.97;;;3.00;;
76320;SDS011;65132;52.088;5.402;2023-04-15T00:33:06;6.57;;;3.38;;
76320;SDS011;65132;52.088;5.402;2023-04-15T00:35:32;8.25;;;3.50;;
76320;SDS011;65132;52.088;5.402;2023-04-15T00:37:58;5.90;;;2.97;;
76320;SDS011;65132;52.088;5.402;2023-04-15T00:40:25;6.10;;;3.58;;
76320;SDS011;65132;52.088;5.402;2023-04-15T00:42:54;5.32;;;3.42;;
76320;SDS011;65132;52.088;5.402;2023-04-15T00:45:20;7.75;;;3.75;;
76320;SDS011;65132;52.088;5.402;2023-04-15T00:47:46;7.30;;;3.58;;
76320;SDS011;65132;52.088;5.402;2023-04-15T00:50:15;5.35;;;3.00;;
76320;SDS011;65132;52.088;5.402;2023-04-15T00:52:44;11.10;;;4.00;;
76320;SDS011;65132;52.088;5.402;2023-04-15T00:55:10;6.82;;;4.13;;
76320;SDS011;65132;52.088;5.402;2023-04-15T00:57:38;6.32;;;2.97;;
76320;SDS011;65132;52.088;5.402;2023-04-15T01:00:05;6.07;;;3.22;;
76320;SDS011;65132;52.088;5.402;2023-04-15T01:02:33;6.22;;;3.10;;
76320;SDS011;65132;52.088;5.402;2023-04-15T01:05:04;6.45;;;3.22;;
76320;SDS011;65132;52.088;5.402;2023-04-15T01:07:33;6.38;;;3.60;;
76320;SDS011;65132;52.088;5.402;2023-04-15T01:09:59;8.30;;;3.85;;
76320;SDS011;65132;52.088;5.402;2023-04-15T01:12:27;8.82;;;4.22;;
76320;SDS011;65132;52.088;5.402;2023-04-15T01:15:02;8.60;;;3.58;;
76320;SDS011;65132;52.088;5.402;2023-04-15T01:17:29;8.15;;;3.95;;
76320;SDS011;65132;52.088;5.402;2023-04-15T01:20:06;8.07;;;3.90;;
76320;SDS011;65132;52.088;5.402;2023-04-15T01:22:35;8.18;;;3.97;;
76320;SDS011;65132;52.088;5.402;2023-04-15T01:25:05;7.40;;;3.92;;
76320;SDS011;65132;52.088;5.402;2023-04-15T01:27:33;9.63;;;4.13;;
76320;SDS011;65132;52.088;5.402;2023-04-15T01:30:00;8.57;;;3.75;;
76320;SDS011;65132;52.088;5.402;2023-04-15T01:32:27;7.90;;;3.50;;
76320;SDS011;65132;52.088;5.402;2023-04-15T01:34:53;7.30;;;4.15;;
76320;SDS011;65132;52.088;5.402;2023-04-15T01:37:19;6.05;;;3.53;;
76320;SDS011;65132;52.088;5.402;2023-04-15T01:42:18;7.40;;;4.18;;
76320;SDS011;65132;52.088;5.402;2023-04-15T01:44:44;6.05;;;3.20;;
76320;SDS011;65132;52.088;5.402;2023-04-15T01:47:16;7.18;;;3.30;;
76320;SDS011;65132;52.088;5.402;2023-04-15T01:49:45;5.95;;;2.80;;
76320;SDS011;65132;52.088;5.402;2023-04-15T01:52:11;6.72;;;3.15;;
76320;SDS011;65132;52.088;5.402;2023-04-15T01:54:38;5.80;;;3.22;;
76320;SDS011;65132;52.088;5.402;2023-04-15T01:57:05;9.23;;;3.60;;
76320;SDS011;65132;52.088;5.402;2023-04-15T01:59:32;5.80;;;3.13;;
76320;SDS011;65132;52.088;5.402;2023-04-15T02:01:58;5.65;;;3.05;;
76320;SDS011;65132;52.088;5.402;2023-04-15T02:04:25;7.38;;;3.42;;
76320;SDS011;65132;52.088;5.402;2023-04-15T02:06:53;7.50;;;3.40;;
76320;SDS011;65132;52.088;5.402;2023-04-15T02:09:20;8.00;;;3.22;;
76320;SDS011;65132;52.088;5.402;2023-04-15T02:11:46;6.82;;;3.03;;
76320;SDS011;65132;52.088;5.402;2023-04-15T02:14:13;6.60;;;3.00;;
76320;SDS011;65132;52.088;5.402;2023-04-15T02:16:39;7.50;;;3.10;;
76320;SDS011;65132;52.088;5.402;2023-04-15T02:19:05;5.47;;;2.65;;
76320;SDS011;65132;52.088;5.402;2023-04-15T02:21:32;6.30;;;3.35;;
76320;SDS011;65132;52.088;5.402;2023-04-15T02:24:00;7.88;;;4.13;;
76320;SDS011;65132;52.088;5.402;2023-04-15T02:28:58;7.28;;;3.40;;
76320;SDS011;65132;52.088;5.402;2023-04-15T02:31:27;8.05;;;4.32;;
76320;SDS011;65132;52.088;5.402;2023-04-15T02:33:56;6.30;;;3.28;;
76320;SDS011;65132;52.088;5.402;2023-04-15T02:36:23;6.88;;;3.42;;
76320;SDS011;65132;52.088;5.402;2023-04-15T02:38:50;6.38;;;3.55;;
76320;SDS011;65132;52.088;5.402;2023-04-15T02:41:16;7.18;;;3.55;;
76320;SDS011;65132;52.088;5.402;2023-04-15T02:43:45;7.47;;;3.38;;
76320;SDS011;65132;52.088;5.402;2023-04-15T02:46:12;9.27;;;3.28;;
76320;SDS011;65132;52.088;5.402;2023-04-15T02:48:41;6.97;;;2.95;;
76320;SDS011;65132;52.088;5.402;2023-04-15T02:51:19;7.53;;;3.15;;
76320;SDS011;65132;52.088;5.402;2023-04-15T02:53:50;5.70;;;3.03;;
76320;SDS011;65132;52.088;5.402;2023-04-15T02:56:17;7.57;;;3.65;;
76320;SDS011;65132;52.088;5.402;2023-04-15T02:58:43;7.38;;;3.25;;
76320;SDS011;65132;52.088;5.402;2023-04-15T03:01:10;5.03;;;2.90;;
76320;SDS011;65132;52.088;5.402;2023-04-15T03:03:37;4.85;;;2.67;;
76320;SDS011;65132;52.088;5.402;2023-04-15T03:06:04;7.35;;;3.00;;
76320;SDS011;65132;52.088;5.402;2023-04-15T03:08:31;4.45;;;2.45;;
76320;SDS011;65132;52.088;5.402;2023-04-15T03:11:01;6.40;;;2.80;;
76320;SDS011;65132;52.088;5.402;2023-04-15T03:13:30;5.22;;;2.47;;
76320;SDS011;65132;52.088;5.402;2023-04-15T03:15:58;5.22;;;2.83;;
76320;SDS011;65132;52.088;5.402;2023-04-15T03:18:25;5.20;;;3.55;;
76320;SDS011;65132;52.088;5.402;2023-04-15T03:20:54;5.95;;;2.97;;
76320;SDS011;65132;52.088;5.402;2023-04-15T03:23:27;5.57;;;2.72;;
76320;SDS011;65132;52.088;5.402;2023-04-15T03:25:53;6.47;;;2.40;;
76320;SDS011;65132;52.088;5.402;2023-04-15T03:28:20;5.15;;;3.10;;
76320;SDS011;65132;52.088;5.402;2023-04-15T03:30:53;5.75;;;3.25;;
76320;SDS011;65132;52.088;5.402;2023-04-15T03:33:20;5.57;;;3.70;;
76320;SDS011;65132;52.088;5.402;2023-04-15T03:35:46;7.07;;;3.67;;
76320;SDS011;65132;52.088;5.402;2023-04-15T03:38:13;7.13;;;3.17;;
76320;SDS011;65132;52.088;5.402;2023-04-15T03:40:40;6.38;;;3.28;;
76320;SDS011;65132;52.088;5.402;2023-04-15T03:43:10;7.45;;;2.78;;
76320;SDS011;65132;52.088;5.402;2023-04-15T03:45:37;5.97;;;3.03;;
76320;SDS011;65132;52.088;5.402;2023-04-15T03:48:07;9.02;;;3.35;;
76320;SDS011;65132;52.088;5.402;2023-04-15T03:50:43;5.45;;;2.50;;
76320;SDS011;65132;52.088;5.402;2023-04-15T03:53:12;8.70;;;3.78;;
76320;SDS011;65132;52.088;5.402;2023-04-15T03:55:39;6.45;;;3.45;;
76320;SDS011;65132;52.088;5.402;2023-04-15T03:58:05;9.45;;;3.78;;
76320;SDS011;65132;52.088;5.402;2023-04-15T04:00:31;6.25;;;3.22;;
76320;SDS011;65132;52.088;5.402;2023-04-15T04:02:58;9.20;;;4.63;;
76320;SDS011;65132;52.088;5.402;2023-04-15T04:05:24;7.55;;;3.92;;
76320;SDS011;65132;52.088;5.402;2023-04-15T04:07:51;8.85;;;3.50;;
76320;SDS011;65132;52.088;5.402;2023-04-15T04:10:17;8.07;;;3.70;;
76320;SDS011;65132;52.088;5.402;2023-04-15T04:12:49;8.75;;;2.97;;
76320;SDS011;65132;52.088;5.402;2023-04-15T04:15:23;5.95;;;2.58;;
76320;SDS011;65132;52.088;5.402;2023-04-15T04:17:50;8.10;;;3.15;;
76320;SDS011;65132;52.088;5.402;2023-04-15T04:20:16;6.53;;;3.15;;
76320;SDS011;65132;52.088;5.402;2023-04-15T04:22:43;6.40;;;2.47;;
76320;SDS011;65132;52.088;5.402;2023-04-15T04:25:09;6.03;;;2.97;;
76320;SDS011;65132;52.088;5.402;2023-04-15T04:27:35;6.80;;;3.13;;
76320;SDS011;65132;52.088;5.402;2023-04-15T04:30:04;5.93;;;3.10;;
76320;SDS011;65132;52.088;5.402;2023-04-15T04:32:33;6.55;;;3.03;;
76320;SDS011;65132;52.088;5.402;2023-04-15T04:34:59;7.13;;;3.45;;
76320;SDS011;65132;52.088;5.402;2023-04-15T04:37:26;8.40;;;3.47;;
76320;SDS011;65132;52.088;5.402;2023-04-15T04:39:58;7.30;;;3.35;;
76320;SDS011;65132;52.088;5.402;2023-04-15T04:42:24;9.00;;;4.05;;
76320;SDS011;65132;52.088;5.402;2023-04-15T04:44:54;7.97;;;3.70;;
76320;SDS011;65132;52.088;5.402;2023-04-15T04:47:20;7.68;;;3.25;;
76320;SDS011;65132;52.088;5.402;2023-04-15T04:49:47;8.32;;;3.88;;
76320;SDS011;65132;52.088;5.402;2023-04-15T04:52:13;7.20;;;3.10;;
76320;SDS011;65132;52.088;5.402;2023-04-15T04:54:40;6.22;;;3.00;;
76320;SDS011;65132;52.088;5.402;2023-04-15T04:57:06;10.77;;;3.83;;
76320;SDS011;65132;52.088;5.402;2023-04-15T04:59:35;8.73;;;3.35;;
76320;SDS011;65132;52.088;5.402;2023-04-15T05:02:01;6.35;;;2.83;;
76320;SDS011;65132;52.088;5.402;2023-04-15T05:04:36;4.32;;;2.08;;
76320;SDS011;65132;52.088;5.402;2023-04-15T05:07:02;4.78;;;2.53;;
76320;SDS011;65132;52.088;5.402;2023-04-15T05:09:29;6.45;;;3.58;;
76320;SDS011;65132;52.088;5.402;2023-04-15T05:11:55;5.38;;;2.80;;
76320;SDS011;65132;52.088;5.402;2023-04-15T05:14:23;6.22;;;2.55;;
76320;SDS011;65132;52.088;5.402;2023-04-15T05:16:50;5.95;;;2.65;;
76320;SDS011;65132;52.088;5.402;2023-04-15T05:19:16;6.70;;;2.70;;
76320;SDS011;65132;52.088;5.402;2023-04-15T05:21:44;6.43;;;2.92;;
76320;SDS011;65132;52.088;5.402;2023-04-15T05:24:11;5.60;;;2.63;;
76320;SDS011;65132;52.088;5.402;2023-04-15T05:26:37;7.82;;;2.92;;
76320;SDS011;65132;52.088;5.402;2023-04-15T05:29:05;6.18;;;3.08;;
76320;SDS011;65132;52.088;5.402;2023-04-15T05:31:33;8.05;;;3.05;;
76320;SDS011;65132;52.088;5.402;2023-04-15T05:33:59;5.13;;;2.28;;
76320;SDS011;65132;52.088;5.402;2023-04-15T05:36:27;6.60;;;2.78;;
76320;SDS011;65132;52.088;5.402;2023-04-15T05:38:53;6.60;;;3.40;;
76320;SDS011;65132;52.088;5.402;2023-04-15T05:41:23;10.25;;;3.33;;
76320;SDS011;65132;52.088;5.402;2023-04-15T05:43:51;5.95;;;2.83;;
76320;SDS011;65132;52.088;5.402;2023-04-15T05:46:18;5.63;;;2.53;;
76320;SDS011;65132;52.088;5.402;2023-04-15T05:48:44;5.15;;;2.72;;
76320;SDS011;65132;52.088;5.402;2023-04-15T05:51:11;7.65;;;3.33;;
76320;SDS011;65132;52.088;5.402;2023-04-15T05:53:37;8.18;;;3.08;;
76320;SDS011;65132;52.088;5.402;2023-04-15T05:56:08;7.88;;;3.78;;
76320;SDS011;65132;52.088;5.402;2023-04-15T05:58:35;6.53;;;2.72;;
76320;SDS011;65132;52.088;5.402;2023-04-15T06:01:04;5.45;;;2.72;;
76320;SDS011;65132;52.088;5.402;2023-04-15T06:03:39;5.55;;;2.88;;
76320;SDS011;65132;52.088;5.402;2023-04-15T06:06:06;6.00;;;3.28;;
76320;SDS011;65132;52.088;5.402;2023-04-15T06:08:32;8.20;;;3.20;;
76320;SDS011;65132;52.088;5.402;2023-04-15T06:10:59;7.18;;;3.33;;
76320;SDS011;65132;52.088;5.402;2023-04-15T06:13:25;8.95;;;3.83;;
76320;SDS011;65132;52.088;5.402;2023-04-15T06:15:52;7.32;;;3.42;;
76320;SDS011;65132;52.088;5.402;2023-04-15T06:18:20;8.82;;;3.78;;
76320;SDS011;65132;52.088;5.402;2023-04-15T06:20:46;7.70;;;3.55;;
76320;SDS011;65132;52.088;5.402;2023-04-15T06:23:15;5.75;;;3.13;;
76320;SDS011;65132;52.088;5.402;2023-04-15T06:25:42;8.88;;;4.25;;
76320;SDS011;65132;52.088;5.402;2023-04-15T06:28:09;9.77;;;3.40;;
76320;SDS011;65132;52.088;5.402;2023-04-15T06:30:38;11.57;;;3.85;;
76320;SDS011;65132;52.088;5.402;2023-04-15T06:33:07;7.03;;;3.83;;
76320;SDS011;65132;52.088;5.402;2023-04-15T06:35:37;13.55;;;4.72;;
76320;SDS011;65132;52.088;5.402;2023-04-15T06:38:11;10.43;;;4.53;;
76320;SDS011;65132;52.088;5.402;2023-04-15T06:40:38;11.15;;;4.75;;
76320;SDS011;65132;52.088;5.402;2023-04-15T06:43:06;11.13;;;4.40;;
76320;SDS011;65132;52.088;5.402;2023-04-15T06:45:32;11.15;;;4.53;;
76320;SDS011;65132;52.088;5.402;2023-04-15T06:47:59;8.70;;;4.75;;
76320;SDS011;65132;52.088;5.402;2023-04-15T06:50:28;9.82;;;4.70;;
76320;SDS011;65132;52.088;5.402;2023-04-15T06:52:55;10.38;;;5.00;;
76320;SDS011;65132;52.088;5.402;2023-04-15T06:55:21;10.57;;;4.68;;
76320;SDS011;65132;52.088;5.402;2023-04-15T06:57:49;11.27;;;5.90;;
76320;SDS011;65132;52.088;5.402;2023-04-15T07:00:19;8.90;;;5.53;;
76320;SDS011;65132;52.088;5.402;2023-04-15T07:02:46;11.30;;;5.80;;
76320;SDS011;65132;52.088;5.402;2023-04-15T07:05:12;12.60;;;5.43;;
76320;SDS011;65132;52.088;5.402;2023-04-15T07:07:40;10.90;;;4.57;;
76320;SDS011;65132;52.088;5.402;2023-04-15T07:10:06;10.98;;;5.00;;
76320;SDS011;65132;52.088;5.402;2023-04-15T07:12:40;11.88;;;5.38;;
76320;SDS011;65132;52.088;5.402;2023-04-15T07:15:09;12.07;;;5.15;;
76320;SDS011;65132;52.088;5.402;2023-04-15T07:17:37;12.90;;;6.20;;
76320;SDS011;65132;52.088;5.402;2023-04-15T07:20:04;10.73;;;6.15;;
76320;SDS011;65132;52.088;5.402;2023-04-15T07:22:31;9.60;;;4.72;;
76320;SDS011;65132;52.088;5.402;2023-04-15T07:24:58;11.75;;;5.47;;
76320;SDS011;65132;52.088;5.402;2023-04-15T07:27:24;10.10;;;5.45;;
76320;SDS011;65132;52.088;5.402;2023-04-15T07:29:51;10.02;;;5.53;;
76320;SDS011;65132;52.088;5.402;2023-04-15T07:32:17;10.00;;;5.85;;
76320;SDS011;65132;52.088;5.402;2023-04-15T07:34:45;10.27;;;5.22;;
76320;SDS011;65132;52.088;5.402;2023-04-15T07:37:11;12.68;;;5.93;;
76320;SDS011;65132;52.088;5.402;2023-04-15T07:39:38;10.10;;;5.05;;
76320;SDS011;65132;52.088;5.402;2023-04-15T07:42:04;9.82;;;4.97;;
76320;SDS011;65132;52.088;5.402;2023-04-15T07:44:31;9.00;;;4.75;;
76320;SDS011;65132;52.088;5.402;2023-04-15T07:47:02;8.18;;;4.30;;
76320;SDS011;65132;52.088;5.402;2023-04-15T07:49:29;9.27;;;4.75;;
76320;SDS011;65132;52.088;5.402;2023-04-15T07:51:55;9.43;;;4.75;;
76320;SDS011;65132;52.088;5.402;2023-04-15T07:54:22;7.60;;;3.47;;
76320;SDS011;65132;52.088;5.402;2023-04-15T07:56:48;7.22;;;3.33;;
76320;SDS011;65132;52.088;5.402;2023-04-15T07:59:16;6.80;;;3.70;;
76320;SDS011;65132;52.088;5.402;2023-04-15T08:01:43;6.93;;;4.22;;
76320;SDS011;65132;52.088;5.402;2023-04-15T08:04:10;6.82;;;3.45;;
76320;SDS011;65132;52.088;5.402;2023-04-15T08:06:37;7.47;;;3.97;;
76320;SDS011;65132;52.088;5.402;2023-04-15T08:09:05;6.55;;;3.58;;
76320;SDS011;65132;52.088;5.402;2023-04-15T08:11:32;6.88;;;3.63;;
76320;SDS011;65132;52.088;5.402;2023-04-15T08:13:59;7.45;;;3.30;;
76320;SDS011;65132;52.088;5.402;2023-04-15T08:16:25;9.10;;;3.53;;
76320;SDS011;65132;52.088;5.402;2023-04-15T08:18:52;8.32;;;3.67;;
76320;SDS011;65132;52.088;5.402;2023-04-15T08:21:21;7.20;;;3.83;;
76320;SDS011;65132;52.088;5.402;2023-04-15T08:23:50;6.28;;;2.88;;
76320;SDS011;65132;52.088;5.402;2023-04-15T08:26:20;7.10;;;2.97;;
76320;SDS011;65132;52.088;5.402;2023-04-15T08:28:47;5.80;;;2.80;;
76320;SDS011;65132;52.088;5.402;2023-04-15T08:31:14;5.32;;;2.53;;
76320;SDS011;65132;52.088;5.402;2023-04-15T08:33:45;4.93;;;2.38;;
76320;SDS011;65132;52.088;5.402;2023-04-15T08:36:11;4.57;;;2.60;;
76320;SDS011;65132;52.088;5.402;2023-04-15T08:38:38;3.58;;;1.83;;
76320;SDS011;65132;52.088;5.402;2023-04-15T08:41:11;5.25;;;1.80;;
76320;SDS011;65132;52.088;5.402;2023-04-15T08:44:00;4.22;;;1.80;;
76320;SDS011;65132;52.088;5.402;2023-04-15T08:46:33;6.25;;;2.33;;
76320;SDS011;65132;52.088;5.402;2023-04-15T08:49:03;5.28;;;2.40;;
76320;SDS011;65132;52.088;5.402;2023-04-15T08:51:30;5.57;;;2.40;;
76320;SDS011;65132;52.088;5.402;2023-04-15T08:53:57;3.60;;;2.08;;
76320;SDS011;65132;52.088;5.402;2023-04-15T08:56:25;4.65;;;2.05;;
76320;SDS011;65132;52.088;5.402;2023-04-15T08:58:51;5.30;;;2.45;;
76320;SDS011;65132;52.088;5.402;2023-04-15T09:01:26;4.57;;;2.22;;
76320;SDS011;65132;52.088;5.402;2023-04-15T09:03:52;4.07;;;2.00;;
76320;SDS011;65132;52.088;5.402;2023-04-15T09:06:19;3.85;;;1.90;;
76320;SDS011;65132;52.088;5.402;2023-04-15T09:08:46;4.82;;;2.33;;
76320;SDS011;65132;52.088;5.402;2023-04-15T09:11:15;6.18;;;2.55;;
76320;SDS011;65132;52.088;5.402;2023-04-15T09:13:45;5.85;;;2.17;;
76320;SDS011;65132;52.088;5.402;2023-04-15T09:16:12;4.32;;;2.00;;
76320;SDS011;65132;52.088;5.402;2023-04-15T09:18:39;4.88;;;2.35;;
76320;SDS011;65132;52.088;5.402;2023-04-15T09:23:56;5.60;;;2.50;;
76320;SDS011;65132;52.088;5.402;2023-04-15T09:29:04;5.10;;;2.38;;
76320;SDS011;65132;52.088;5.402;2023-04-15T09:31:36;5.40;;;2.40;;
76320;SDS011;65132;52.088;5.402;2023-04-15T09:34:06;4.90;;;2.55;;
76320;SDS011;65132;52.088;5.402;2023-04-15T09:36:37;5.45;;;2.47;;
76320;SDS011;65132;52.088;5.402;2023-04-15T09:39:22;4.32;;;1.73;;
76320;SDS011;65132;52.088;5.402;2023-04-15T09:42:07;3.95;;;1.90;;
76320;SDS011;65132;52.088;5.402;2023-04-15T09:44:35;3.55;;;2.28;;
76320;SDS011;65132;52.088;5.402;2023-04-15T09:47:04;5.00;;;1.77;;
76320;SDS011;65132;52.088;5.402;2023-04-15T09:49:33;4.47;;;2.65;;
76320;SDS011;65132;52.088;5.402;2023-04-15T09:52:00;4.68;;;2.25;;
76320;SDS011;65132;52.088;5.402;2023-04-15T09:54:32;4.57;;;2.55;;
76320;SDS011;65132;52.088;5.402;2023-04-15T09:57:03;4.50;;;2.13;;
76320;SDS011;65132;52.088;5.402;2023-04-15T09:59:30;5.05;;;1.85;;
76320;SDS011;65132;52.088;5.402;2023-04-15T10:01:59;5.78;;;2.95;;
76320;SDS011;65132;52.088;5.402;2023-04-15T10:04:29;7.15;;;1.98;;
76320;SDS011;65132;52.088;5.402;2023-04-15T10:06:56;4.43;;;1.83;;
76320;SDS011;65132;52.088;5.402;2023-04-15T10:09:26;4.63;;;2.33;;
76320;SDS011;65132;52.088;5.402;2023-04-15T10:12:00;3.95;;;1.90;;
76320;SDS011;65132;52.088;5.402;2023-04-15T10:14:30;3.92;;;1.88;;
76320;SDS011;65132;52.088;5.402;2023-04-15T10:17:02;3.63;;;1.67;;
76320;SDS011;65132;52.088;5.402;2023-04-15T10:19:33;4.18;;;2.47;;
76320;SDS011;65132;52.088;5.402;2023-04-15T10:22:02;4.63;;;2.75;;
76320;SDS011;65132;52.088;5.402;2023-04-15T10:24:38;5.78;;;2.25;;
76320;SDS011;65132;52.088;5.402;2023-04-15T10:27:05;2.80;;;1.08;;
76320;SDS011;65132;52.088;5.402;2023-04-15T10:29:33;3.00;;;1.13;;
76320;SDS011;65132;52.088;5.402;2023-04-15T10:32:05;4.18;;;1.52;;
76320;SDS011;65132;52.088;5.402;2023-04-15T10:34:32;3.50;;;1.52;;
76320;SDS011;65132;52.088;5.402;2023-04-15T10:37:02;3.53;;;1.50;;
76320;SDS011;65132;52.088;5.402;2023-04-15T10:42:11;3.78;;;1.98;;
76320;SDS011;65132;52.088;5.402;2023-04-15T10:44:41;4.35;;;1.70;;
76320;SDS011;65132;52.088;5.402;2023-04-15T10:47:14;3.00;;;1.60;;
76320;SDS011;65132;52.088;5.402;2023-04-15T10:49:48;5.10;;;2.40;;
76320;SDS011;65132;52.088;5.402;2023-04-15T10:55:02;3.88;;;1.80;;
76320;SDS011;65132;52.088;5.402;2023-04-15T10:57:44;4.07;;;1.80;;
76320;SDS011;65132;52.088;5.402;2023-04-15T11:00:12;3.95;;;1.75;;
76320;SDS011;65132;52.088;5.402;2023-04-15T11:02:46;3.20;;;1.55;;
76320;SDS011;65132;52.088;5.402;2023-04-15T11:05:21;3.42;;;2.10;;
76320;SDS011;65132;52.088;5.402;2023-04-15T11:08:08;3.58;;;1.92;;
76320;SDS011;65132;52.088;5.402;2023-04-15T11:13:16;3.10;;;1.83;;
76320;SDS011;65132;52.088;5.402;2023-04-15T11:15:47;4.00;;;1.55;;
76320;SDS011;65132;52.088;5.402;2023-04-15T11:18:19;2.50;;;1.08;;
76320;SDS011;65132;52.088;5.402;2023-04-15T11:20:52;2.60;;;1.25;;
76320;SDS011;65132;52.088;5.402;2023-04-15T11:23:28;2.10;;;1.17;;
76320;SDS011;65132;52.088;5.402;2023-04-15T11:26:00;2.75;;;1.25;;
76320;SDS011;65132;52.088;5.402;2023-04-15T11:28:29;2.85;;;1.38;;
76320;SDS011;65132;52.088;5.402;2023-04-15T11:31:05;2.95;;;1.33;;
76320;SDS011;65132;52.088;5.402;2023-04-15T11:33:32;2.80;;;1.35;;
76320;SDS011;65132;52.088;5.402;2023-04-15T11:35:59;4.22;;;1.58;;
76320;SDS011;65132;52.088;5.402;2023-04-15T11:38:26;2.75;;;1.70;;
76320;SDS011;65132;52.088;5.402;2023-04-15T11:40:52;3.38;;;1.58;;
76320;SDS011;65132;52.088;5.402;2023-04-15T11:43:22;3.17;;;1.80;;
76320;SDS011;65132;52.088;5.402;2023-04-15T11:48:17;5.15;;;1.65;;
76320;SDS011;65132;52.088;5.402;2023-04-15T11:50:44;4.18;;;1.67;;
76320;SDS011;65132;52.088;5.402;2023-04-15T11:53:16;3.78;;;1.63;;
76320;SDS011;65132;52.088;5.402;2023-04-15T11:55:48;2.55;;;1.50;;
76320;SDS011;65132;52.088;5.402;2023-04-15T11:58:23;4.00;;;1.75;;
76320;SDS011;65132;52.088;5.402;2023-04-15T12:00:55;4.78;;;1.85;;
76320;SDS011;65132;52.088;5.402;2023-04-15T12:03:38;3.80;;;1.67;;
76320;SDS011;65132;52.088;5.402;2023-04-15T12:14:04;4.95;;;1.88;;
76320;SDS011;65132;52.088;5.402;2023-04-15T12:16:43;6.20;;;1.60;;
76320;SDS011;65132;52.088;5.402;2023-04-15T12:19:16;3.55;;;1.80;;
76320;SDS011;65132;52.088;5.402;2023-04-15T12:21:45;2.92;;;1.60;;
76320;SDS011;65132;52.088;5.402;2023-04-15T12:24:13;3.30;;;1.50;;
76320;SDS011;65132;52.088;5.402;2023-04-15T12:26:44;1.95;;;1.00;;
76320;SDS011;65132;52.088;5.402;2023-04-15T12:29:12;3.65;;;1.17;;
76320;SDS011;65132;52.088;5.402;2023-04-15T12:31:50;2.75;;;1.02;;
76320;SDS011;65132;52.088;5.402;2023-04-15T12:34:27;2.90;;;1.13;;
76320;SDS011;65132;52.088;5.402;2023-04-15T12:36:59;2.45;;;0.93;;
76320;SDS011;65132;52.088;5.402;2023-04-15T12:39:28;2.50;;;1.40;;
76320;SDS011;65132;52.088;5.402;2023-04-15T12:41:59;2.70;;;1.40;;
76320;SDS011;65132;52.088;5.402;2023-04-15T12:44:29;3.42;;;1.30;;
76320;SDS011;65132;52.088;5.402;2023-04-15T12:46:57;2.85;;;1.08;;
76320;SDS011;65132;52.088;5.402;2023-04-15T12:49:25;3.97;;;1.85;;
76320;SDS011;65132;52.088;5.402;2023-04-15T12:51:55;3.05;;;1.48;;
76320;SDS011;65132;52.088;5.402;2023-04-15T12:54:22;2.35;;;1.00;;
76320;SDS011;65132;52.088;5.402;2023-04-15T12:56:49;3.92;;;1.58;;
76320;SDS011;65132;52.088;5.402;2023-04-15T12:59:18;2.88;;;1.00;;
76320;SDS011;65132;52.088;5.402;2023-04-15T13:01:50;3.47;;;1.10;;
76320;SDS011;65132;52.088;5.402;2023-04-15T13:04:18;2.35;;;1.23;;
76320;SDS011;65132;52.088;5.402;2023-04-15T13:06:50;2.20;;;0.82;;
76320;SDS011;65132;52.088;5.402;2023-04-15T13:09:16;3.10;;;1.30;;
76320;SDS011;65132;52.088;5.402;2023-04-15T13:11:45;2.40;;;0.80;;
76320;SDS011;65132;52.088;5.402;2023-04-15T13:14:11;2.72;;;0.60;;
76320;SDS011;65132;52.088;5.402;2023-04-15T13:16:38;6.68;;;1.50;;
76320;SDS011;65132;52.088;5.402;2023-04-15T13:19:05;2.03;;;0.63;;
76320;SDS011;65132;52.088;5.402;2023-04-15T13:21:31;2.25;;;0.98;;
76320;SDS011;65132;52.088;5.402;2023-04-15T13:23:58;2.58;;;1.08;;
76320;SDS011;65132;52.088;5.402;2023-04-15T13:26:30;4.45;;;0.77;;
76320;SDS011;65132;52.088;5.402;2023-04-15T13:28:56;2.75;;;1.15;;
76320;SDS011;65132;52.088;5.402;2023-04-15T13:31:25;3.78;;;0.90;;
76320;SDS011;65132;52.088;5.402;2023-04-15T13:33:52;2.55;;;1.02;;
76320;SDS011;65132;52.088;5.402;2023-04-15T13:36:19;3.33;;;0.82;;
76320;SDS011;65132;52.088;5.402;2023-04-15T13:38:48;3.38;;;0.82;;
76320;SDS011;65132;52.088;5.402;2023-04-15T13:41:16;3.03;;;0.75;;
76320;SDS011;65132;52.088;5.402;2023-04-15T13:43:45;3.38;;;0.82;;
76320;SDS011;65132;52.088;5.402;2023-04-15T13:46:14;5.22;;;1.33;;
76320;SDS011;65132;52.088;5.402;2023-04-15T13:48:41;2.85;;;1.02;;
76320;SDS011;65132;52.088;5.402;2023-04-15T13:51:17;4.53;;;0.95;;
76320;SDS011;65132;52.088;5.402;2023-04-15T13:53:44;2.38;;;1.42;;
76320;SDS011;65132;52.088;5.402;2023-04-15T13:56:11;2.75;;;1.05;;
76320;SDS011;65132;52.088;5.402;2023-04-15T13:58:48;3.15;;;0.80;;
76320;SDS011;65132;52.088;5.402;2023-04-15T14:01:16;3.72;;;0.50;;
76320;SDS011;65132;52.088;5.402;2023-04-15T14:03:42;2.45;;;0.55;;
76320;SDS011;65132;52.088;5.402;2023-04-15T14:06:08;4.78;;;0.80;;
76320;SDS011;65132;52.088;5.402;2023-04-15T14:08:36;2.90;;;0.40;;
76320;SDS011;65132;52.088;5.402;2023-04-15T14:11:02;2.47;;;0.60;;
76320;SDS011;65132;52.088;5.402;2023-04-15T14:13:28;2.70;;;0.77;;
76320;SDS011;65132;52.088;5.402;2023-04-15T14:15:55;1.90;;;0.50;;
76320;SDS011;65132;52.088;5.402;2023-04-15T14:18:22;3.10;;;0.50;;
76320;SDS011;65132;52.088;5.402;2023-04-15T14:20:48;2.72;;;0.60;;
76320;SDS011;65132;52.088;5.402;2023-04-15T14:23:14;2.30;;;0.52;;
76320;SDS011;65132;52.088;5.402;2023-04-15T14:25:44;1.92;;;0.80;;
76320;SDS011;65132;52.088;5.402;2023-04-15T14:28:13;2.67;;;0.60;;
76320;SDS011;65132;52.088;5.402;2023-04-15T14:30:40;3.42;;;0.82;;
76320;SDS011;65132;52.088;5.402;2023-04-15T14:33:09;3.63;;;1.13;;
76320;SDS011;65132;52.088;5.402;2023-04-15T14:35:35;2.97;;;0.68;;
76320;SDS011;65132;52.088;5.402;2023-04-15T14:38:07;1.98;;;0.82;;
76320;SDS011;65132;52.088;5.402;2023-04-15T14:40:34;4.57;;;1.35;;
76320;SDS011;65132;52.088;5.402;2023-04-15T14:43:01;4.28;;;1.25;;
76320;SDS011;65132;52.088;5.402;2023-04-15T14:45:33;2.65;;;1.20;;
76320;SDS011;65132;52.088;5.402;2023-04-15T14:48:00;4.05;;;0.80;;
76320;SDS011;65132;52.088;5.402;2023-04-15T14:50:32;2.10;;;0.68;;
76320;SDS011;65132;52.088;5.402;2023-04-15T14:52:59;3.78;;;0.77;;
76320;SDS011;65132;52.088;5.402;2023-04-15T14:55:27;2.00;;;0.52;;
76320;SDS011;65132;52.088;5.402;2023-04-15T14:57:56;4.10;;;0.95;;
76320;SDS011;65132;52.088;5.402;2023-04-15T15:00:22;1.63;;;0.50;;
76320;SDS011;65132;52.088;5.402;2023-04-15T15:02:52;1.42;;;0.60;;
76320;SDS011;65132;52.088;5.402;2023-04-15T15:05:20;2.45;;;0.30;;
76320;SDS011;65132;52.088;5.402;2023-04-15T15:07:49;3.13;;;0.70;;
76320;SDS011;65132;52.088;5.402;2023-04-15T15:10:18;3.00;;;0.60;;
76320;SDS011;65132;52.088;5.402;2023-04-15T15:13:07;1.63;;;0.52;;
76320;SDS011;65132;52.088;5.402;2023-04-15T15:15:38;3.90;;;0.45;;
76320;SDS011;65132;52.088;5.402;2023-04-15T15:18:09;4.45;;;0.60;;
76320;SDS011;65132;52.088;5.402;2023-04-15T15:20:36;6.38;;;0.65;;
76320;SDS011;65132;52.088;5.402;2023-04-15T15:23:02;2.22;;;0.70;;